T7MBA8 VLVT-VLLB
Flight info
| Callsign | T7MBA8 |
|---|---|
| Flight time | 0h 30m |
| Altitude | 15000 |
| Route | VTN B218 LPB |
| Aircraft | CL60/M-SBDE1E2E3FGHIJ1J4J5J7M3RWXYZ/LB1V1D1 |
Departure
| Time | 2026-05-09 11:20 |
|---|---|
| Airport | Wattay International Airport (VLVT) |
Arrival
| Time | 2026-05-09 11:50 |
|---|---|
| Airport | Luang Phabang International Airport (VLLB) |
| Time | Latitude | Longitude | Altitude | Speed | Heading |
|---|---|---|---|---|---|
| 2026-05-09 10:59 | 17.98057 | 102.57566 | 554 ft | 0 kts | 134° |
| 2026-05-09 11:16 | 17.98054 | 102.57568 | 554 ft | 0 kts | 137° |
| 2026-05-09 11:17 | 17.98052 | 102.57571 | 554 ft | 2 kts | 139° |
| 2026-05-09 11:17 | 17.98034 | 102.57589 | 554 ft | 0 kts | 139° |
| 2026-05-09 11:18 | 17.98033 | 102.57590 | 554 ft | 0 kts | 139° |
| 2026-05-09 11:18 | 17.97991 | 102.57613 | 554 ft | 7 kts | 183° |
| 2026-05-09 11:18 | 17.97934 | 102.57575 | 554 ft | 11 kts | 218° |
| 2026-05-09 11:19 | 17.97872 | 102.57520 | 554 ft | 11 kts | 221° |
| 2026-05-09 11:19 | 17.97878 | 102.57435 | 554 ft | 14 kts | 290° |
| 2026-05-09 11:19 | 17.97899 | 102.57367 | 554 ft | 9 kts | 288° |
| 2026-05-09 11:19 | 17.97923 | 102.57285 | 554 ft | 13 kts | 290° |
| 2026-05-09 11:20 | 17.97980 | 102.57207 | 554 ft | 26 kts | 315° |
| 2026-05-09 11:20 | 17.98366 | 102.56808 | 554 ft | 130 kts | 314° |
| 2026-05-09 11:20 | 17.99186 | 102.55965 | 910 ft | 184 kts | 316° |
| 2026-05-09 11:20 | 18.00100 | 102.55051 | 1986 ft | 183 kts | 316° |
| 2026-05-09 11:21 | 18.01016 | 102.54166 | 2791 ft | 194 kts | 327° |
| 2026-05-09 11:21 | 18.02427 | 102.53691 | 3436 ft | 233 kts | 353° |
| 2026-05-09 11:21 | 18.04117 | 102.53399 | 4386 ft | 262 kts | 352° |
| 2026-05-09 11:21 | 18.05959 | 102.53060 | 5534 ft | 275 kts | 352° |
| 2026-05-09 11:22 | 18.07872 | 102.52701 | 6737 ft | 285 kts | 351° |
| 2026-05-09 11:22 | 18.09819 | 102.52333 | 8008 ft | 292 kts | 350° |
| 2026-05-09 11:22 | 18.11834 | 102.51952 | 9306 ft | 299 kts | 350° |
| 2026-05-09 11:22 | 18.13888 | 102.51562 | 10577 ft | 305 kts | 349° |
| 2026-05-09 11:23 | 18.15964 | 102.51166 | 11800 ft | 311 kts | 349° |
| 2026-05-09 11:23 | 18.18132 | 102.50753 | 12825 ft | 323 kts | 349° |
| 2026-05-09 11:23 | 18.20415 | 102.50317 | 13512 ft | 345 kts | 349° |
| 2026-05-09 11:23 | 18.22853 | 102.49850 | 14288 ft | 362 kts | 349° |
| 2026-05-09 11:24 | 18.25389 | 102.49364 | 14707 ft | 370 kts | 349° |
| 2026-05-09 11:24 | 18.27937 | 102.48875 | 14869 ft | 371 kts | 349° |
| 2026-05-09 11:24 | 18.30476 | 102.48389 | 14891 ft | 369 kts | 349° |
| 2026-05-09 11:24 | 18.33032 | 102.47898 | 14888 ft | 368 kts | 349° |
| 2026-05-09 11:25 | 18.35557 | 102.47413 | 14894 ft | 368 kts | 349° |
| 2026-05-09 11:25 | 18.38092 | 102.46926 | 14910 ft | 368 kts | 349° |
| 2026-05-09 11:25 | 18.40640 | 102.46436 | 14904 ft | 367 kts | 349° |
| 2026-05-09 11:25 | 18.43166 | 102.45950 | 14901 ft | 367 kts | 349° |
| 2026-05-09 11:26 | 18.45670 | 102.45469 | 14910 ft | 367 kts | 349° |
| 2026-05-09 11:26 | 18.48219 | 102.44978 | 14917 ft | 367 kts | 349° |
| 2026-05-09 11:26 | 18.50749 | 102.44491 | 14905 ft | 367 kts | 349° |
| 2026-05-09 11:26 | 18.53274 | 102.44004 | 14917 ft | 367 kts | 349° |
| 2026-05-09 11:27 | 18.55809 | 102.43516 | 14919 ft | 367 kts | 349° |
| 2026-05-09 11:27 | 18.58320 | 102.43031 | 14907 ft | 367 kts | 349° |
| 2026-05-09 11:27 | 18.60873 | 102.42539 | 14919 ft | 367 kts | 349° |
| 2026-05-09 11:27 | 18.63434 | 102.42044 | 14911 ft | 376 kts | 349° |
| 2026-05-09 11:28 | 18.66047 | 102.41539 | 14914 ft | 388 kts | 349° |
| 2026-05-09 11:28 | 18.68766 | 102.41014 | 14908 ft | 392 kts | 349° |
| 2026-05-09 11:28 | 18.71448 | 102.40496 | 14904 ft | 392 kts | 349° |
| 2026-05-09 11:28 | 18.74158 | 102.39973 | 14921 ft | 392 kts | 349° |
| 2026-05-09 11:29 | 18.76850 | 102.39452 | 14928 ft | 392 kts | 349° |
| 2026-05-09 11:29 | 18.79553 | 102.38930 | 14942 ft | 392 kts | 349° |
| 2026-05-09 11:29 | 18.82238 | 102.38410 | 14965 ft | 392 kts | 349° |
| 2026-05-09 11:29 | 18.84959 | 102.37884 | 14969 ft | 392 kts | 349° |
| 2026-05-09 11:30 | 18.87651 | 102.37363 | 14979 ft | 392 kts | 349° |
| 2026-05-09 11:30 | 18.90357 | 102.36839 | 14989 ft | 392 kts | 349° |
| 2026-05-09 11:30 | 18.93043 | 102.36318 | 15004 ft | 392 kts | 349° |
| 2026-05-09 11:30 | 18.95763 | 102.35791 | 15004 ft | 392 kts | 349° |
| 2026-05-09 11:31 | 18.98428 | 102.35274 | 15019 ft | 392 kts | 349° |
| 2026-05-09 11:31 | 19.01124 | 102.34752 | 15027 ft | 392 kts | 348° |
| 2026-05-09 11:31 | 19.03852 | 102.34223 | 15039 ft | 392 kts | 348° |
| 2026-05-09 11:31 | 19.06553 | 102.33699 | 15038 ft | 392 kts | 348° |
| 2026-05-09 11:32 | 19.09252 | 102.33175 | 15032 ft | 392 kts | 348° |
| 2026-05-09 11:32 | 19.11927 | 102.32655 | 15032 ft | 392 kts | 348° |
| 2026-05-09 11:32 | 19.14656 | 102.32125 | 15024 ft | 392 kts | 348° |
| 2026-05-09 11:32 | 19.17338 | 102.31604 | 15020 ft | 393 kts | 348° |
| 2026-05-09 11:33 | 19.20041 | 102.31078 | 15016 ft | 393 kts | 348° |
| 2026-05-09 11:33 | 19.22743 | 102.30553 | 15010 ft | 392 kts | 348° |
| 2026-05-09 11:33 | 19.28132 | 102.29504 | 15007 ft | 392 kts | 348° |
| 2026-05-09 11:34 | 19.30840 | 102.28977 | 15000 ft | 392 kts | 348° |
| 2026-05-09 11:34 | 19.33568 | 102.28446 | 15007 ft | 393 kts | 348° |
| 2026-05-09 11:34 | 19.36265 | 102.27921 | 15003 ft | 392 kts | 348° |
| 2026-05-09 11:34 | 19.38951 | 102.27397 | 15010 ft | 392 kts | 348° |
| 2026-05-09 11:35 | 19.41653 | 102.26871 | 15016 ft | 392 kts | 348° |
| 2026-05-09 11:35 | 19.44381 | 102.26339 | 15012 ft | 392 kts | 348° |
| 2026-05-09 11:35 | 19.47085 | 102.25811 | 15001 ft | 392 kts | 348° |
| 2026-05-09 11:35 | 19.49781 | 102.25285 | 15023 ft | 393 kts | 348° |
| 2026-05-09 11:36 | 19.52477 | 102.24759 | 15022 ft | 393 kts | 348° |
| 2026-05-09 11:36 | 19.55176 | 102.24232 | 15001 ft | 393 kts | 348° |
| 2026-05-09 11:36 | 19.57852 | 102.23709 | 14999 ft | 392 kts | 348° |
| 2026-05-09 11:36 | 19.60576 | 102.23177 | 14991 ft | 392 kts | 348° |
| 2026-05-09 11:37 | 19.63306 | 102.22643 | 14990 ft | 392 kts | 348° |
| 2026-05-09 11:37 | 19.65999 | 102.22117 | 14980 ft | 392 kts | 348° |
| 2026-05-09 11:37 | 19.68689 | 102.21590 | 14976 ft | 392 kts | 348° |
| 2026-05-09 11:37 | 19.71371 | 102.21066 | 14971 ft | 392 kts | 348° |
| 2026-05-09 11:38 | 19.74096 | 102.20532 | 14948 ft | 388 kts | 348° |
| 2026-05-09 11:38 | 19.76702 | 102.20023 | 14608 ft | 374 kts | 348° |
| 2026-05-09 11:38 | 19.79215 | 102.19532 | 14205 ft | 362 kts | 348° |
| 2026-05-09 11:38 | 19.81704 | 102.19044 | 13797 ft | 353 kts | 348° |
| 2026-05-09 11:39 | 19.84096 | 102.18576 | 13321 ft | 345 kts | 348° |
| 2026-05-09 11:39 | 19.86446 | 102.18115 | 12912 ft | 337 kts | 348° |
| 2026-05-09 11:39 | 19.88730 | 102.17672 | 12458 ft | 333 kts | 349° |
| 2026-05-09 11:40 | 19.93213 | 102.18336 | 11531 ft | 326 kts | 25° |
| 2026-05-09 11:40 | 19.95246 | 102.19435 | 11077 ft | 323 kts | 27° |
| 2026-05-09 11:40 | 19.97230 | 102.20514 | 10633 ft | 320 kts | 27° |
| 2026-05-09 11:40 | 19.99208 | 102.21587 | 10198 ft | 317 kts | 27° |
| 2026-05-09 11:41 | 20.01187 | 102.22662 | 9793 ft | 313 kts | 27° |
| 2026-05-09 11:41 | 20.03045 | 102.23671 | 9819 ft | 280 kts | 27° |
| 2026-05-09 11:41 | 20.04750 | 102.24596 | 9351 ft | 272 kts | 27° |
| 2026-05-09 11:41 | 20.06444 | 102.25517 | 8663 ft | 271 kts | 27° |
| 2026-05-09 11:42 | 20.08111 | 102.26423 | 8160 ft | 263 kts | 27° |
| 2026-05-09 11:42 | 20.09732 | 102.27304 | 7961 ft | 266 kts | 27° |
| 2026-05-09 11:42 | 20.11412 | 102.28217 | 7353 ft | 271 kts | 27° |
| 2026-05-09 11:42 | 20.13050 | 102.29109 | 7170 ft | 251 kts | 28° |
| 2026-05-09 11:43 | 20.14368 | 102.30212 | 6871 ft | 240 kts | 53° |
| 2026-05-09 11:43 | 20.14871 | 102.31885 | 5956 ft | 238 kts | 91° |
| 2026-05-09 11:43 | 20.14254 | 102.33421 | 5268 ft | 226 kts | 133° |
| 2026-05-09 11:43 | 20.12869 | 102.34047 | 5008 ft | 212 kts | 177° |
| 2026-05-09 11:44 | 20.11414 | 102.33933 | 4953 ft | 206 kts | 180° |
| 2026-05-09 11:44 | 20.10120 | 102.34461 | 4938 ft | 199 kts | 135° |
| 2026-05-09 11:44 | 20.09500 | 102.35751 | 4954 ft | 196 kts | 106° |
| 2026-05-09 11:44 | 20.08831 | 102.36998 | 4950 ft | 197 kts | 136° |
| 2026-05-09 11:45 | 20.07549 | 102.37519 | 4947 ft | 200 kts | 180° |
| 2026-05-09 11:45 | 20.06305 | 102.36908 | 4946 ft | 202 kts | 227° |
| 2026-05-09 11:45 | 20.05579 | 102.35611 | 4950 ft | 203 kts | 241° |
| 2026-05-09 11:45 | 20.04780 | 102.34367 | 4818 ft | 205 kts | 232° |
| 2026-05-09 11:46 | 20.03880 | 102.33215 | 4571 ft | 201 kts | 230° |
| 2026-05-09 11:46 | 20.02966 | 102.32075 | 4306 ft | 201 kts | 230° |
| 2026-05-09 11:46 | 20.02044 | 102.30936 | 4044 ft | 201 kts | 230° |
| 2026-05-09 11:46 | 20.01137 | 102.29820 | 3783 ft | 200 kts | 230° |
| 2026-05-09 11:47 | 20.00256 | 102.28737 | 3534 ft | 186 kts | 230° |
| 2026-05-09 11:47 | 19.99406 | 102.27693 | 3292 ft | 182 kts | 230° |
| 2026-05-09 11:47 | 19.98581 | 102.26679 | 3057 ft | 180 kts | 230° |
| 2026-05-09 11:47 | 19.97757 | 102.25668 | 2814 ft | 178 kts | 230° |
| 2026-05-09 11:48 | 19.96944 | 102.24669 | 2588 ft | 176 kts | 230° |
| 2026-05-09 11:48 | 19.96191 | 102.23747 | 2393 ft | 154 kts | 230° |
| 2026-05-09 11:48 | 19.95503 | 102.22903 | 2200 ft | 146 kts | 230° |
| 2026-05-09 11:48 | 19.94860 | 102.22115 | 2011 ft | 140 kts | 230° |
| 2026-05-09 11:49 | 19.94222 | 102.21332 | 1833 ft | 137 kts | 229° |
| 2026-05-09 11:49 | 19.93602 | 102.20563 | 1646 ft | 133 kts | 231° |
| 2026-05-09 11:49 | 19.93006 | 102.19810 | 1531 ft | 134 kts | 229° |
| 2026-05-09 11:49 | 19.92383 | 102.19061 | 1343 ft | 133 kts | 227° |
| 2026-05-09 11:50 | 19.91777 | 102.18323 | 1159 ft | 131 kts | 229° |
| 2026-05-09 11:50 | 19.91178 | 102.17595 | 1011 ft | 125 kts | 229° |
| 2026-05-09 11:50 | 19.90696 | 102.17006 | 998 ft | 78 kts | 229° |
| 2026-05-09 11:50 | 19.90483 | 102.16746 | 998 ft | 21 kts | 230° |
| 2026-05-09 11:51 | 19.90394 | 102.16635 | 998 ft | 20 kts | 229° |
| 2026-05-09 11:51 | 19.90316 | 102.16555 | 998 ft | 11 kts | 196° |
| 2026-05-09 11:51 | 19.90239 | 102.16608 | 998 ft | 15 kts | 136° |
| 2026-05-09 11:51 | 19.90190 | 102.16652 | 998 ft | 5 kts | 140° |
| 2026-05-09 11:52 | 19.90157 | 102.16682 | 997 ft | 4 kts | 138° |
| 2026-05-09 11:52 | 19.90136 | 102.16702 | 997 ft | 4 kts | 139° |
| 2026-05-09 11:52 | 19.90128 | 102.16710 | 997 ft | 1 kts | 138° |
| 2026-05-09 11:52 | 19.90125 | 102.16712 | 997 ft | 0 kts | 138° |